createdAt,value
2023-01-04T00:00:07.859Z,5.68
2023-01-04T00:03:09.427Z,6.47
2023-01-04T00:06:16.871Z,5.78
2023-01-04T00:09:18.436Z,5.85
2023-01-04T00:12:19.943Z,5.65
2023-01-04T00:15:21.534Z,6.07
2023-01-04T00:18:23.087Z,5.35
2023-01-04T00:21:27.534Z,6.75
2023-01-04T00:24:29.086Z,5.35
2023-01-04T00:27:30.648Z,5.50
2023-01-04T00:30:32.608Z,5.47
2023-01-04T00:33:34.593Z,4.63
2023-01-04T00:36:36.125Z,5.30
2023-01-04T00:39:37.706Z,4.43
2023-01-04T00:42:39.233Z,4.18
2023-01-04T00:45:43.198Z,4.35
2023-01-04T00:48:48.725Z,4.90
2023-01-04T00:51:50.637Z,4.95
2023-01-04T00:54:52.167Z,4.43
2023-01-04T00:57:53.716Z,4.50
2023-01-04T01:00:55.293Z,4.97
2023-01-04T01:04:01.812Z,5.10
2023-01-04T01:07:03.797Z,4.95
2023-01-04T01:10:05.992Z,5.25
2023-01-04T01:13:07.598Z,5.35
2023-01-04T01:16:12.742Z,4.85
2023-01-04T01:19:15.099Z,4.72
2023-01-04T01:22:17.808Z,4.22
2023-01-04T01:25:19.398Z,4.95
2023-01-04T01:28:23.370Z,4.70
2023-01-04T01:31:29.100Z,4.22
2023-01-04T01:34:30.735Z,4.40
2023-01-04T01:37:32.315Z,4.45
2023-01-04T01:40:33.947Z,5.00
2023-01-04T01:43:53.083Z,5.88
2023-01-04T01:46:55.062Z,5.93
2023-01-04T01:50:00.276Z,5.22
2023-01-04T01:53:04.540Z,6.43
2023-01-04T01:56:08.719Z,6.38
2023-01-04T02:02:12.954Z,5.65
2023-01-04T02:05:14.811Z,5.95
2023-01-04T02:08:17.257Z,5.60
2023-01-04T02:11:18.799Z,6.68
2023-01-04T02:14:22.465Z,5.53
2023-01-04T02:17:35.024Z,5.78
2023-01-04T02:21:02.156Z,5.47
2023-01-04T02:24:28.335Z,4.47
2023-01-04T02:27:41.289Z,5.32
2023-01-04T02:31:04.299Z,5.78
2023-01-04T02:34:27.647Z,5.65
2023-01-04T02:38:06.576Z,5.80
2023-01-04T02:41:33.868Z,6.03
2023-01-04T02:44:43.729Z,5.60
2023-01-04T02:47:45.803Z,5.65
2023-01-04T02:50:54.392Z,5.45
2023-01-04T02:53:58.073Z,4.50
2023-01-04T02:57:04.882Z,4.63
2023-01-04T03:00:12.903Z,4.60
2023-01-04T03:03:23.803Z,4.93
2023-01-04T03:06:36.645Z,4.50
2023-01-04T03:09:42.780Z,5.13
2023-01-04T03:13:07.410Z,4.57
2023-01-04T03:16:14.506Z,5.50
2023-01-04T03:19:21.124Z,4.35
2023-01-04T03:22:29.377Z,4.55
2023-01-04T03:25:56.835Z,4.47
2023-01-04T03:29:13.214Z,4.72
2023-01-04T03:32:21.636Z,4.53
2023-01-04T03:35:29.835Z,4.95
2023-01-04T03:39:00.675Z,4.90
2023-01-04T03:42:13.813Z,4.80
2023-01-04T03:45:22.519Z,5.70
2023-01-04T03:48:43.568Z,4.93
2023-01-04T03:51:46.225Z,4.68
2023-01-04T03:54:50.151Z,4.70
2023-01-04T03:57:52.421Z,4.38
2023-01-04T04:00:54.547Z,4.50
2023-01-04T04:03:56.324Z,4.82
2023-01-04T04:06:57.807Z,4.75
2023-01-04T04:09:59.263Z,5.07
2023-01-04T04:13:00.776Z,4.80
2023-01-04T04:16:02.394Z,4.82
2023-01-04T04:19:08.559Z,5.35
2023-01-04T04:22:10.569Z,4.88
2023-01-04T04:25:12.066Z,4.18
2023-01-04T04:28:13.548Z,4.13
2023-01-04T04:31:15.224Z,4.22
2023-01-04T04:34:16.813Z,4.72
2023-01-04T04:37:18.275Z,3.70
2023-01-04T04:40:19.852Z,5.05
2023-01-04T04:43:21.400Z,4.85
2023-01-04T04:46:23.120Z,4.50
2023-01-04T04:49:24.757Z,4.88
2023-01-04T04:52:26.311Z,4.93
2023-01-04T04:55:27.937Z,5.50
2023-01-04T04:58:29.527Z,4.70
2023-01-04T05:01:31.522Z,4.88
2023-01-04T05:04:33.168Z,4.45
2023-01-04T05:07:34.846Z,3.75
2023-01-04T05:10:37.594Z,4.95
2023-01-04T05:13:39.631Z,3.63
2023-01-04T05:16:41.261Z,3.78
2023-01-04T05:19:43.098Z,3.75
2023-01-04T05:22:44.715Z,3.47
2023-01-04T05:25:48.769Z,3.15
2023-01-04T05:28:53.967Z,3.10
2023-01-04T05:31:55.950Z,3.50
2023-01-04T05:34:57.544Z,3.00
2023-01-04T05:37:59.870Z,3.22
2023-01-04T05:41:01.466Z,3.92
2023-01-04T05:44:03.123Z,4.40
2023-01-04T05:47:08.251Z,3.78
2023-01-04T05:50:12.741Z,3.90
2023-01-04T05:53:15.905Z,3.60
2023-01-04T05:56:17.418Z,3.20
2023-01-04T05:59:18.910Z,3.33
2023-01-04T06:02:27.900Z,3.17
2023-01-04T06:05:29.566Z,3.25
2023-01-04T06:08:31.064Z,3.30
2023-01-04T06:11:32.639Z,3.65
2023-01-04T06:14:34.348Z,3.83
2023-01-04T06:17:36.449Z,3.88
2023-01-04T06:20:38.009Z,4.78
2023-01-04T06:23:39.555Z,4.85
2023-01-04T06:26:41.093Z,5.07
2023-01-04T06:29:42.659Z,4.72
2023-01-04T06:32:44.284Z,4.97
2023-01-04T06:35:54.195Z,5.53
2023-01-04T06:38:59.690Z,5.15
2023-01-04T06:42:06.260Z,4.75
2023-01-04T06:45:08.597Z,4.80
2023-01-04T06:48:10.264Z,3.97
2023-01-04T06:51:20.505Z,3.58
2023-01-04T06:54:22.081Z,4.63
2023-01-04T06:57:23.622Z,4.70
2023-01-04T07:00:25.483Z,4.32
2023-01-04T07:03:26.964Z,4.55
2023-01-04T07:06:28.595Z,4.75
2023-01-04T07:09:30.145Z,4.15
2023-01-04T07:12:32.483Z,4.35
2023-01-04T07:15:38.230Z,4.55
2023-01-04T07:18:41.857Z,4.03
2023-01-04T07:21:43.373Z,4.85
2023-01-04T07:24:44.971Z,4.78
2023-01-04T07:27:51.628Z,5.40
2023-01-04T07:30:53.172Z,4.80
2023-01-04T07:33:54.728Z,4.28
2023-01-04T07:36:56.249Z,5.13
2023-01-04T07:39:57.773Z,4.57
2023-01-04T07:42:59.762Z,4.13
2023-01-04T07:46:01.504Z,4.28
2023-01-04T07:49:03.693Z,4.45
2023-01-04T07:52:05.335Z,5.50
2023-01-04T07:55:07.501Z,4.15
2023-01-04T07:58:09.135Z,4.65
2023-01-04T08:01:13.681Z,3.80
2023-01-04T08:04:16.147Z,4.13
2023-01-04T08:07:17.816Z,3.40
2023-01-04T08:10:19.388Z,3.50
2023-01-04T08:13:21.025Z,3.30
2023-01-04T08:16:28.109Z,3.13
2023-01-04T08:19:29.808Z,3.45
2023-01-04T08:22:31.405Z,3.20
2023-01-04T08:25:32.986Z,3.60
2023-01-04T08:28:34.949Z,4.03
2023-01-04T08:31:36.909Z,3.90
2023-01-04T08:34:38.515Z,3.80
2023-01-04T08:37:40.025Z,3.90
2023-01-04T08:41:00.148Z,3.88
2023-01-04T08:44:03.133Z,3.80
2023-01-04T08:47:04.952Z,3.88
2023-01-04T08:50:10.658Z,4.15
2023-01-04T08:53:12.608Z,4.55
2023-01-04T08:56:14.207Z,5.40
2023-01-04T08:59:15.923Z,4.22
2023-01-04T09:02:22.484Z,4.45
2023-01-04T09:05:24.447Z,4.20
2023-01-04T09:08:26.175Z,4.88
2023-01-04T09:11:28.159Z,4.53
2023-01-04T09:14:29.849Z,3.63
2023-01-04T09:17:31.484Z,3.10
2023-01-04T09:20:33.090Z,3.97
2023-01-04T09:23:35.820Z,3.30
2023-01-04T09:26:37.430Z,3.17
2023-01-04T09:29:39.006Z,3.08
2023-01-04T09:32:40.602Z,2.92
2023-01-04T09:35:42.245Z,3.53
2023-01-04T09:38:43.970Z,3.50
2023-01-04T09:41:52.044Z,3.75
2023-01-04T09:48:29.276Z,3.58
2023-01-04T09:51:36.322Z,2.97
2023-01-04T09:54:50.296Z,3.08
2023-01-04T09:57:59.289Z,3.67
2023-01-04T10:01:16.956Z,2.75
2023-01-04T10:04:48.900Z,3.50
2023-01-04T10:07:50.496Z,2.95
2023-01-04T10:11:29.791Z,3.35
2023-01-04T10:14:37.875Z,3.17
2023-01-04T10:21:34.405Z,2.90
2023-01-04T10:24:39.160Z,2.97
2023-01-04T10:28:13.015Z,2.78
2023-01-04T10:31:41.887Z,2.67
2023-01-04T10:34:45.344Z,2.53
2023-01-04T10:37:52.340Z,2.63
2023-01-04T10:40:57.700Z,2.45
2023-01-04T10:44:17.115Z,2.70
2023-01-04T10:47:29.947Z,2.22
2023-01-04T10:50:38.477Z,2.35
2023-01-04T10:53:53.397Z,2.90
2023-01-04T10:57:06.883Z,2.20
2023-01-04T11:00:35.359Z,2.58
2023-01-04T11:03:50.006Z,2.17
2023-01-04T11:06:57.764Z,2.30
2023-01-04T11:10:18.014Z,3.05
2023-01-04T11:13:19.918Z,3.25
2023-01-04T11:16:21.531Z,2.75
2023-01-04T11:19:23.257Z,2.80
2023-01-04T11:22:34.235Z,2.55
2023-01-04T11:25:42.082Z,2.38
2023-01-04T11:28:52.016Z,2.45
2023-01-04T11:31:59.315Z,1.85
2023-01-04T11:35:00.975Z,2.05
2023-01-04T11:38:11.969Z,2.10
2023-01-04T11:41:17.990Z,2.30
2023-01-04T11:44:19.545Z,1.95
2023-01-04T11:47:24.290Z,2.60
2023-01-04T11:50:34.551Z,2.58
2023-01-04T11:53:37.281Z,2.15
2023-01-04T11:56:39.944Z,3.33
2023-01-04T11:59:41.469Z,2.65
2023-01-04T12:03:00.583Z,1.83
2023-01-04T12:06:02.835Z,2.95
2023-01-04T12:09:04.572Z,2.95
2023-01-04T12:12:10.933Z,2.80
2023-01-04T12:15:42.545Z,2.13
2023-01-04T12:18:45.551Z,2.40
2023-01-04T12:21:53.522Z,2.50
2023-01-04T12:25:00.365Z,2.78
2023-01-04T12:28:02.396Z,2.42
2023-01-04T12:31:33.439Z,2.35
2023-01-04T12:34:34.988Z,2.78
2023-01-04T12:37:39.567Z,2.58
2023-01-04T12:40:46.808Z,2.58
2023-01-04T12:43:51.476Z,2.83
2023-01-04T12:46:53.025Z,3.20
2023-01-04T12:49:57.653Z,2.40
2023-01-04T12:53:20.106Z,3.40
2023-01-04T12:59:34.617Z,3.03
2023-01-04T13:02:41.649Z,2.75
2023-01-04T13:05:56.590Z,2.83
2023-01-04T13:08:59.097Z,2.22
2023-01-04T13:12:13.270Z,2.50
2023-01-04T13:15:22.759Z,2.97
2023-01-04T13:18:42.640Z,2.70
2023-01-04T13:21:46.060Z,2.92
2023-01-04T13:24:49.760Z,2.33
2023-01-04T13:28:18.247Z,2.88
2023-01-04T13:31:19.925Z,2.22
2023-01-04T13:34:23.431Z,2.15
2023-01-04T13:37:42.262Z,2.55
2023-01-04T13:40:49.341Z,6.25
2023-01-04T13:44:15.071Z,5.47
2023-01-04T13:47:16.877Z,3.53
2023-01-04T13:50:27.802Z,2.70
2023-01-04T13:53:31.393Z,2.63
2023-01-04T13:56:34.555Z,2.67
2023-01-04T13:59:37.413Z,2.25
2023-01-04T14:02:39.187Z,2.88
2023-01-04T14:05:46.678Z,2.85
2023-01-04T14:09:13.083Z,1.85
2023-01-04T14:12:19.629Z,2.67
2023-01-04T14:15:26.171Z,2.38
2023-01-04T14:18:30.801Z,2.38
2023-01-04T14:21:37.409Z,2.30
2023-01-04T14:25:08.409Z,2.40
2023-01-04T14:28:18.834Z,2.53
2023-01-04T14:31:21.364Z,2.33
2023-01-04T14:34:24.610Z,2.45
2023-01-04T14:37:26.380Z,3.35
2023-01-04T14:40:30.205Z,2.10
2023-01-04T14:43:45.952Z,2.80
2023-01-04T14:46:51.503Z,2.67
2023-01-04T14:49:53.090Z,2.50
2023-01-04T14:52:54.739Z,2.83
2023-01-04T14:55:56.645Z,2.75
2023-01-04T14:58:58.231Z,3.00
2023-01-04T15:01:59.918Z,2.72
2023-01-04T15:05:01.647Z,2.65
2023-01-04T15:08:03.353Z,2.95
2023-01-04T15:11:05.087Z,2.67
2023-01-04T15:14:06.696Z,3.60
2023-01-04T15:17:08.290Z,3.35
2023-01-04T15:20:10.501Z,3.70
2023-01-04T15:23:12.026Z,2.75
2023-01-04T15:26:13.629Z,3.45
2023-01-04T15:29:15.119Z,3.05
2023-01-04T15:32:17.017Z,3.33
2023-01-04T15:35:18.603Z,3.55
2023-01-04T15:38:20.187Z,3.80
2023-01-04T15:41:21.726Z,3.50
2023-01-04T15:44:23.236Z,3.30
2023-01-04T15:47:24.884Z,3.65
2023-01-04T15:50:26.440Z,3.83
2023-01-04T15:57:09.125Z,4.78
2023-01-04T16:00:11.362Z,4.18
2023-01-04T16:03:15.731Z,4.45
2023-01-04T16:06:18.254Z,3.47
2023-01-04T16:09:20.183Z,4.00
2023-01-04T16:12:21.862Z,3.88
2023-01-04T16:15:23.506Z,3.83
2023-01-04T16:18:28.910Z,4.47
2023-01-04T16:21:33.948Z,4.35
2023-01-04T16:27:57.066Z,4.55
2023-01-04T16:30:58.680Z,3.45
2023-01-04T16:34:00.364Z,4.47
2023-01-04T16:37:01.943Z,4.40
2023-01-04T16:40:06.889Z,3.92
2023-01-04T16:43:09.568Z,3.85
2023-01-04T16:46:30.579Z,3.88
2023-01-04T16:49:32.135Z,4.18
2023-01-04T16:52:33.661Z,4.60
2023-01-04T16:55:35.127Z,3.90
2023-01-04T16:58:37.068Z,3.42
2023-01-04T17:01:46.424Z,3.58
2023-01-04T17:04:51.703Z,4.50
2023-01-04T17:07:53.231Z,4.07
2023-01-04T17:10:54.904Z,3.50
2023-01-04T17:13:58.080Z,4.22
2023-01-04T17:17:00.829Z,4.40
2023-01-04T17:20:02.417Z,4.22
2023-01-04T17:23:03.959Z,5.10
2023-01-04T17:26:09.092Z,4.60
2023-01-04T17:29:11.319Z,4.25
2023-01-04T17:32:12.872Z,5.40
2023-01-04T17:35:14.418Z,6.00
2023-01-04T17:38:16.566Z,4.75
2023-01-04T17:41:20.351Z,4.35
2023-01-04T17:44:21.872Z,4.15
2023-01-04T17:47:23.463Z,4.60
2023-01-04T17:50:24.962Z,5.28
2023-01-04T17:53:26.522Z,5.43
2023-01-04T17:56:29.333Z,4.82
2023-01-04T17:59:30.848Z,5.57
2023-01-04T18:02:32.964Z,7.07
2023-01-04T18:05:45.004Z,5.80
2023-01-04T18:08:55.206Z,5.57
2023-01-04T18:11:56.775Z,5.40
2023-01-04T18:14:58.250Z,5.68
2023-01-04T18:17:59.738Z,6.90
2023-01-04T18:21:28.062Z,6.43
2023-01-04T18:24:38.883Z,6.20
2023-01-04T18:27:40.705Z,5.93
2023-01-04T18:30:42.446Z,4.57
2023-01-04T18:33:50.539Z,7.15
2023-01-04T18:36:52.324Z,6.05
2023-01-04T18:39:53.911Z,6.63
2023-01-04T18:42:55.418Z,7.15
2023-01-04T18:45:56.940Z,6.00
2023-01-04T18:49:00.138Z,7.03
2023-01-04T18:52:01.769Z,6.78
2023-01-04T18:55:03.665Z,6.97
2023-01-04T18:58:05.319Z,6.22
2023-01-04T19:01:10.516Z,5.47
2023-01-04T19:04:12.346Z,5.32
2023-01-04T19:07:14.275Z,6.47
2023-01-04T19:10:16.455Z,5.80
2023-01-04T19:13:17.976Z,6.00
2023-01-04T19:16:19.587Z,5.43
2023-01-04T19:19:24.143Z,6.03
2023-01-04T19:22:25.693Z,5.40
2023-01-04T19:25:28.610Z,6.68
2023-01-04T19:28:30.428Z,6.43
2023-01-04T19:31:31.997Z,4.20
2023-01-04T19:34:33.608Z,5.38
2023-01-04T19:37:35.120Z,5.47
2023-01-04T19:40:37.399Z,4.80
2023-01-04T19:43:39.041Z,5.00
2023-01-04T19:46:40.737Z,6.25
2023-01-04T19:49:42.376Z,4.82
2023-01-04T19:55:48.248Z,5.65
2023-01-04T19:58:49.905Z,5.45
2023-01-04T20:01:51.734Z,5.53
2023-01-04T20:04:53.468Z,4.70
2023-01-04T20:07:55.014Z,5.47
2023-01-04T20:10:57.952Z,6.50
2023-01-04T20:13:59.462Z,6.07
2023-01-04T20:17:01.149Z,5.18
2023-01-04T20:20:02.859Z,5.32
2023-01-04T20:23:04.413Z,5.45
2023-01-04T20:26:16.087Z,5.78
2023-01-04T20:29:17.691Z,4.25
2023-01-04T20:32:22.324Z,4.07
2023-01-04T20:35:23.989Z,4.85
2023-01-04T20:38:25.663Z,5.10
2023-01-04T20:41:28.982Z,4.80
2023-01-04T20:44:33.525Z,5.60
2023-01-04T20:47:35.056Z,4.63
2023-01-04T20:50:36.723Z,4.60
2023-01-04T20:53:38.522Z,4.60
2023-01-04T20:56:40.192Z,5.55
2023-01-04T20:59:41.892Z,4.53
2023-01-04T21:02:43.651Z,5.53
2023-01-04T21:05:45.559Z,6.25
2023-01-04T21:08:47.338Z,4.45
2023-01-04T21:11:48.865Z,5.13
2023-01-04T21:14:50.365Z,4.72
2023-01-04T21:17:51.981Z,5.07
2023-01-04T21:20:53.973Z,4.88
2023-01-04T21:23:58.038Z,4.38
2023-01-04T21:30:01.915Z,5.30
2023-01-04T21:33:03.583Z,4.97
2023-01-04T21:36:13.802Z,5.20
2023-01-04T21:39:15.435Z,6.55
2023-01-04T21:42:17.089Z,5.63
2023-01-04T21:45:18.832Z,5.22
2023-01-04T21:48:20.467Z,5.78
2023-01-04T21:51:22.552Z,5.40
2023-01-04T21:54:24.150Z,3.85
2023-01-04T21:57:25.795Z,4.32
2023-01-04T22:00:27.396Z,4.78
2023-01-04T22:03:31.574Z,4.90
2023-01-04T22:09:35.228Z,4.45
2023-01-04T22:12:39.684Z,4.10
2023-01-04T22:15:41.494Z,5.22
2023-01-04T22:18:50.050Z,5.60
2023-01-04T22:21:51.735Z,5.03
2023-01-04T22:24:53.322Z,5.43
2023-01-04T22:27:54.939Z,4.95
2023-01-04T22:30:56.649Z,4.78
2023-01-04T22:33:58.321Z,5.30
2023-01-04T22:36:59.883Z,5.00
2023-01-04T22:40:01.618Z,4.68
2023-01-04T22:43:03.280Z,5.20
2023-01-04T22:46:08.270Z,4.88
2023-01-04T22:49:10.103Z,5.07
2023-01-04T22:52:11.589Z,4.55
2023-01-04T22:55:13.151Z,3.63
2023-01-04T22:58:14.915Z,5.97
2023-01-04T23:01:16.637Z,5.05
2023-01-04T23:04:19.124Z,4.32
2023-01-04T23:07:20.742Z,4.55
2023-01-04T23:10:22.259Z,4.18
2023-01-04T23:13:23.739Z,4.68
2023-01-04T23:16:31.842Z,5.00
2023-01-04T23:19:33.657Z,4.13
2023-01-04T23:22:35.193Z,6.07
2023-01-04T23:25:36.663Z,4.38
2023-01-04T23:28:38.210Z,5.25
2023-01-04T23:31:39.925Z,4.20
2023-01-04T23:34:41.489Z,4.25
2023-01-04T23:37:42.928Z,4.72
2023-01-04T23:40:48.118Z,4.68
2023-01-04T23:43:49.565Z,5.10
2023-01-04T23:46:56.586Z,4.28
2023-01-04T23:49:58.119Z,3.70
2023-01-04T23:52:59.623Z,4.00
2023-01-04T23:56:04.942Z,4.45
2023-01-04T23:59:06.936Z,4.47
